createdAt,value
2023-02-20T00:00:54.397Z,5.18
2023-02-20T00:03:21.709Z,5.00
2023-02-20T00:05:48.504Z,5.50
2023-02-20T00:08:15.833Z,4.85
2023-02-20T00:10:43.067Z,4.63
2023-02-20T00:13:10.068Z,5.87
2023-02-20T00:15:37.555Z,5.75
2023-02-20T00:18:04.447Z,7.65
2023-02-20T00:20:33.304Z,5.75
2023-02-20T00:23:00.624Z,5.97
2023-02-20T00:25:27.845Z,6.67
2023-02-20T00:27:55.177Z,6.25
2023-02-20T00:30:25.038Z,5.28
2023-02-20T00:32:53.206Z,6.63
2023-02-20T00:35:22.140Z,7.47
2023-02-20T00:37:49.599Z,6.60
2023-02-20T00:40:17.650Z,7.38
2023-02-20T00:42:45.099Z,9.70
2023-02-20T00:45:13.377Z,10.02
2023-02-20T00:47:40.724Z,9.00
2023-02-20T00:50:09.565Z,8.60
2023-02-20T00:52:36.498Z,9.87
2023-02-20T00:55:04.158Z,11.07
2023-02-20T00:57:31.393Z,9.70
2023-02-20T00:59:58.611Z,9.98
2023-02-20T01:02:25.908Z,10.07
2023-02-20T01:04:53.554Z,11.38
2023-02-20T01:07:20.806Z,11.60
2023-02-20T01:09:47.684Z,13.27
2023-02-20T01:12:16.224Z,12.07
2023-02-20T01:14:43.619Z,11.82
2023-02-20T01:17:12.873Z,13.90
2023-02-20T01:19:40.314Z,13.05
2023-02-20T01:22:08.910Z,13.57
2023-02-20T01:24:36.301Z,12.55
2023-02-20T01:27:03.971Z,12.93
2023-02-20T01:29:31.259Z,13.38
2023-02-20T01:31:59.794Z,13.60
2023-02-20T01:34:27.187Z,14.00
2023-02-20T01:36:56.433Z,14.20
2023-02-20T01:39:28.746Z,13.67
2023-02-20T01:41:58.536Z,12.98
2023-02-20T01:44:28.537Z,12.55
2023-02-20T01:46:57.682Z,14.90
2023-02-20T01:49:44.295Z,14.32
2023-02-20T01:52:39.097Z,12.50
2023-02-20T01:55:09.355Z,13.65
2023-02-20T01:57:39.334Z,15.27
2023-02-20T02:00:20.102Z,15.65
2023-02-20T02:02:50.652Z,14.73
2023-02-20T02:05:18.306Z,15.50
2023-02-20T02:07:46.131Z,19.05
2023-02-20T02:10:26.010Z,14.65
2023-02-20T02:12:54.639Z,13.55
2023-02-20T02:15:23.550Z,16.23
2023-02-20T02:18:08.269Z,17.45
2023-02-20T02:21:00.419Z,16.52
2023-02-20T02:23:45.393Z,15.35
2023-02-20T02:26:48.212Z,15.68
2023-02-20T02:29:42.424Z,16.00
2023-02-20T02:32:09.760Z,15.38
2023-02-20T02:35:01.412Z,14.95
2023-02-20T02:37:40.229Z,16.17
2023-02-20T02:40:23.778Z,15.35
2023-02-20T02:42:54.140Z,13.57
2023-02-20T02:45:38.361Z,12.88
2023-02-20T02:48:09.360Z,12.43
2023-02-20T02:50:43.948Z,13.25
2023-02-20T02:53:13.311Z,10.77
2023-02-20T02:55:40.940Z,11.50
2023-02-20T02:58:09.096Z,11.50
2023-02-20T03:00:47.414Z,10.38
2023-02-20T03:03:24.020Z,9.68
2023-02-20T03:05:55.391Z,9.88
2023-02-20T03:08:32.545Z,11.68
2023-02-20T03:11:15.464Z,9.90
2023-02-20T03:14:09.290Z,8.13
2023-02-20T03:16:55.118Z,11.10
2023-02-20T03:19:35.879Z,9.80
2023-02-20T03:22:07.730Z,9.13
2023-02-20T03:24:55.159Z,9.93
2023-02-20T03:27:39.575Z,9.60
2023-02-20T03:30:28.728Z,10.63
2023-02-20T03:33:49.586Z,9.93
2023-02-20T03:36:43.355Z,11.50
2023-02-20T03:39:33.762Z,8.98
2023-02-20T03:42:20.891Z,10.45
2023-02-20T03:44:55.814Z,10.43
2023-02-20T03:47:27.010Z,10.80
2023-02-20T03:49:55.954Z,10.30
2023-02-20T03:52:23.590Z,10.88
2023-02-20T03:54:51.500Z,9.48
2023-02-20T03:57:22.868Z,10.45
2023-02-20T04:00:02.113Z,8.82
2023-02-20T04:02:42.549Z,8.20
2023-02-20T04:05:22.758Z,9.33
2023-02-20T04:07:57.822Z,7.40
2023-02-20T04:10:34.775Z,7.05
2023-02-20T04:13:02.535Z,8.40
2023-02-20T04:15:30.604Z,7.28
2023-02-20T04:18:04.745Z,5.68
2023-02-20T04:20:32.618Z,4.90
2023-02-20T04:23:13.676Z,5.78
2023-02-20T04:25:57.357Z,4.88
2023-02-20T04:28:26.039Z,4.45
2023-02-20T04:30:58.100Z,4.07
2023-02-20T04:33:25.743Z,4.85
2023-02-20T04:35:58.539Z,4.10
2023-02-20T04:38:26.652Z,6.53
2023-02-20T04:40:54.012Z,3.50
2023-02-20T04:43:22.630Z,3.53
2023-02-20T04:45:51.223Z,3.13
2023-02-20T04:48:18.876Z,3.95
2023-02-20T04:50:47.261Z,3.85
2023-02-20T04:53:15.813Z,2.83
2023-02-20T04:55:43.322Z,3.25
2023-02-20T04:58:14.354Z,3.70
2023-02-20T05:01:10.597Z,3.97
2023-02-20T05:03:37.854Z,5.10
2023-02-20T05:06:05.170Z,4.60
2023-02-20T05:08:32.681Z,6.53
2023-02-20T05:11:00.078Z,5.55
2023-02-20T05:13:27.350Z,8.38
2023-02-20T05:15:54.728Z,7.45
2023-02-20T05:18:29.102Z,8.27
2023-02-20T05:21:15.119Z,9.55
2023-02-20T05:23:42.386Z,8.45
2023-02-20T05:26:17.234Z,9.52
2023-02-20T05:28:45.257Z,10.48
2023-02-20T05:31:13.327Z,9.98
2023-02-20T05:33:42.235Z,10.48
2023-02-20T05:36:09.712Z,11.20
2023-02-20T05:38:37.175Z,11.88
2023-02-20T05:41:04.443Z,11.32
2023-02-20T05:43:31.693Z,11.75
2023-02-20T05:45:59.063Z,9.33
2023-02-20T05:48:26.348Z,11.88
2023-02-20T05:50:54.821Z,14.90
2023-02-20T05:53:22.062Z,15.15
2023-02-20T05:55:49.409Z,13.57
2023-02-20T05:58:16.663Z,14.00
2023-02-20T06:00:43.904Z,13.80
2023-02-20T06:03:11.291Z,17.17
2023-02-20T06:05:38.669Z,14.45
2023-02-20T06:08:06.161Z,14.70
2023-02-20T06:10:33.643Z,15.50
2023-02-20T06:13:01.018Z,17.67
2023-02-20T06:15:28.397Z,13.18
2023-02-20T06:17:55.650Z,14.40
2023-02-20T06:20:22.915Z,16.30
2023-02-20T06:22:50.490Z,17.15
2023-02-20T06:25:17.825Z,17.15
2023-02-20T06:27:45.065Z,15.15
2023-02-20T06:30:12.596Z,17.70
2023-02-20T06:32:39.857Z,17.70
2023-02-20T06:35:07.363Z,16.30
2023-02-20T06:37:34.282Z,15.33
2023-02-20T06:40:01.212Z,16.38
2023-02-20T06:42:28.503Z,16.63
2023-02-20T06:44:55.476Z,17.15
2023-02-20T06:47:22.736Z,20.40
2023-02-20T06:49:50.248Z,17.10
2023-02-20T06:52:17.552Z,16.60
2023-02-20T06:54:44.998Z,17.20
2023-02-20T06:57:12.239Z,16.60
2023-02-20T06:59:43.616Z,15.77
2023-02-20T07:02:12.286Z,14.57
2023-02-20T07:04:39.692Z,14.85
2023-02-20T07:07:06.709Z,16.88
2023-02-20T07:09:34.091Z,15.80
2023-02-20T07:12:01.491Z,16.17
2023-02-20T07:14:28.779Z,16.83
2023-02-20T07:16:56.051Z,15.88
2023-02-20T07:19:23.308Z,14.70
2023-02-20T07:21:51.030Z,16.02
2023-02-20T07:24:19.912Z,14.60
2023-02-20T07:26:48.171Z,14.90
2023-02-20T07:29:15.513Z,13.18
2023-02-20T07:31:42.517Z,15.88
2023-02-20T07:34:09.405Z,13.57
2023-02-20T07:36:40.065Z,13.55
2023-02-20T07:39:07.325Z,11.57
2023-02-20T07:41:38.039Z,13.50
2023-02-20T07:44:06.755Z,11.82
2023-02-20T07:46:34.353Z,11.48
2023-02-20T07:49:03.710Z,13.20
2023-02-20T07:51:31.238Z,11.15
2023-02-20T07:53:58.717Z,10.25
2023-02-20T07:56:26.129Z,10.65
2023-02-20T07:58:53.422Z,9.07
2023-02-20T08:01:20.848Z,8.75
2023-02-20T08:03:48.480Z,9.65
2023-02-20T08:06:19.548Z,10.50
2023-02-20T08:08:50.712Z,9.35
2023-02-20T08:11:23.036Z,8.85
2023-02-20T08:13:50.680Z,8.18
2023-02-20T08:16:18.096Z,10.02
2023-02-20T08:18:45.614Z,8.18
2023-02-20T08:21:12.467Z,7.47
2023-02-20T08:23:39.289Z,6.93
2023-02-20T08:26:06.891Z,5.95
2023-02-20T08:28:34.139Z,7.00
2023-02-20T08:31:01.682Z,10.55
2023-02-20T08:33:28.939Z,8.27
2023-02-20T08:35:57.400Z,9.60
2023-02-20T08:38:31.288Z,6.82
2023-02-20T08:40:58.815Z,7.82
2023-02-20T08:43:28.006Z,7.78
2023-02-20T08:45:55.714Z,8.20
2023-02-20T08:48:23.044Z,9.57
2023-02-20T08:50:50.346Z,8.93
2023-02-20T08:53:17.732Z,8.60
2023-02-20T08:55:44.997Z,7.18
2023-02-20T08:58:12.332Z,6.18
2023-02-20T09:00:39.695Z,8.75
2023-02-20T09:03:08.369Z,8.70
2023-02-20T09:05:36.953Z,7.25
2023-02-20T09:08:05.611Z,7.43
2023-02-20T09:10:32.551Z,5.50
2023-02-20T09:12:59.965Z,7.90
2023-02-20T09:15:26.961Z,7.32
2023-02-20T09:17:54.126Z,8.90
2023-02-20T09:20:22.797Z,11.40
2023-02-20T09:22:50.784Z,8.55
2023-02-20T09:25:19.309Z,8.18
2023-02-20T09:27:46.565Z,12.57
2023-02-20T09:30:19.642Z,7.90
2023-02-20T09:32:47.317Z,7.10
2023-02-20T09:35:34.444Z,9.27
2023-02-20T09:38:02.026Z,8.90
2023-02-20T09:40:32.679Z,9.15
2023-02-20T09:43:19.777Z,9.70
2023-02-20T09:45:59.452Z,11.90
2023-02-20T09:48:42.564Z,5.72
2023-02-20T09:51:15.705Z,7.85
2023-02-20T09:53:45.935Z,9.52
2023-02-20T09:56:18.828Z,9.63
2023-02-20T09:59:17.651Z,7.35
2023-02-20T10:01:58.309Z,8.57
2023-02-20T10:05:01.515Z,7.50
2023-02-20T10:07:28.842Z,8.70
2023-02-20T10:09:57.442Z,9.05
2023-02-20T10:12:38.470Z,7.57
2023-02-20T10:15:39.598Z,9.60
2023-02-20T10:18:34.517Z,8.32
2023-02-20T10:21:18.173Z,8.10
2023-02-20T10:24:03.719Z,8.50
2023-02-20T10:26:39.888Z,9.10
2023-02-20T10:29:26.740Z,7.47
2023-02-20T10:32:04.590Z,9.70
2023-02-20T10:34:51.056Z,6.75
2023-02-20T10:37:25.332Z,8.20
2023-02-20T10:40:02.295Z,8.85
2023-02-20T10:42:38.619Z,8.40
2023-02-20T10:45:14.788Z,8.35
2023-02-20T10:47:43.084Z,8.20
2023-02-20T10:50:16.257Z,8.35
2023-02-20T10:52:59.742Z,9.67
2023-02-20T10:55:36.662Z,6.20
2023-02-20T10:58:10.933Z,7.07
2023-02-20T11:00:51.506Z,6.80
2023-02-20T11:03:25.822Z,8.05
2023-02-20T11:05:56.609Z,9.57
2023-02-20T11:08:23.974Z,7.85
2023-02-20T11:10:59.920Z,9.27
2023-02-20T11:13:27.124Z,6.70
2023-02-20T11:15:56.923Z,7.78
2023-02-20T11:18:30.597Z,7.25
2023-02-20T11:20:59.234Z,6.32
2023-02-20T11:23:44.155Z,7.63
2023-02-20T11:26:34.812Z,8.87
2023-02-20T11:29:12.745Z,4.65
2023-02-20T11:31:40.698Z,6.95
2023-02-20T11:34:13.392Z,6.90
2023-02-20T11:36:45.856Z,5.20
2023-02-20T11:39:30.644Z,6.05
2023-02-20T11:42:19.889Z,6.63
2023-02-20T11:45:03.696Z,8.02
2023-02-20T11:47:30.868Z,6.82
2023-02-20T11:50:20.937Z,5.03
2023-02-20T11:53:05.266Z,4.20
2023-02-20T11:55:32.762Z,5.07
2023-02-20T11:58:00.100Z,5.53
2023-02-20T12:00:34.611Z,4.75
2023-02-20T12:03:10.678Z,5.22
2023-02-20T12:05:48.107Z,4.85
2023-02-20T12:08:38.334Z,3.40
2023-02-20T12:11:10.106Z,5.07
2023-02-20T12:13:38.977Z,5.10
2023-02-20T12:16:18.472Z,4.65
2023-02-20T12:18:51.955Z,3.92
2023-02-20T12:21:22.318Z,3.97
2023-02-20T12:24:34.607Z,3.15
2023-02-20T12:27:08.795Z,4.38
2023-02-20T12:29:36.192Z,3.13
2023-02-20T12:32:34.273Z,4.53
2023-02-20T12:35:12.341Z,3.60
2023-02-20T12:37:58.388Z,3.40
2023-02-20T12:40:25.693Z,4.28
2023-02-20T12:42:56.030Z,2.47
2023-02-20T12:46:14.685Z,3.83
2023-02-20T12:49:18.013Z,4.03
2023-02-20T12:52:34.497Z,5.10
2023-02-20T12:55:09.368Z,4.00
2023-02-20T12:58:08.757Z,4.03
2023-02-20T13:00:43.330Z,5.00
2023-02-20T13:03:52.674Z,4.20
2023-02-20T13:06:46.097Z,4.43
2023-02-20T13:09:32.065Z,3.55
2023-02-20T13:12:13.706Z,4.55
2023-02-20T13:14:59.347Z,4.72
2023-02-20T13:17:31.487Z,4.00
2023-02-20T13:20:15.703Z,3.53
2023-02-20T13:22:42.694Z,2.38
2023-02-20T13:25:31.452Z,2.72
2023-02-20T13:28:04.743Z,2.88
2023-02-20T13:30:34.212Z,4.10
2023-02-20T13:33:21.441Z,4.20
2023-02-20T13:35:48.639Z,3.22
2023-02-20T13:38:18.168Z,1.92
2023-02-20T13:41:00.350Z,3.55
2023-02-20T13:43:33.920Z,4.90
2023-02-20T13:46:00.920Z,6.00
2023-02-20T13:48:30.959Z,3.35
2023-02-20T13:51:10.465Z,3.47
2023-02-20T13:53:37.737Z,4.18
2023-02-20T13:56:05.236Z,8.77
2023-02-20T13:58:32.229Z,4.38
2023-02-20T14:00:59.831Z,5.00
2023-02-20T14:03:27.237Z,6.10
2023-02-20T14:06:07.791Z,5.35
2023-02-20T14:08:36.435Z,4.47
2023-02-20T14:11:12.563Z,4.18
2023-02-20T14:13:41.844Z,4.00
2023-02-20T14:16:27.374Z,6.22
2023-02-20T14:19:02.471Z,4.30
2023-02-20T14:21:30.197Z,6.13
2023-02-20T14:23:57.928Z,5.38
2023-02-20T14:26:34.055Z,6.07
2023-02-20T14:29:01.576Z,5.30
2023-02-20T14:31:38.327Z,4.35
2023-02-20T14:34:05.703Z,6.15
2023-02-20T14:36:53.987Z,5.75
2023-02-20T14:39:21.297Z,6.38
2023-02-20T14:42:03.038Z,7.32
2023-02-20T14:44:31.926Z,6.95
2023-02-20T14:47:25.042Z,7.28
2023-02-20T14:49:52.138Z,6.55
2023-02-20T14:52:27.318Z,5.50
2023-02-20T14:55:00.258Z,5.95
2023-02-20T14:57:27.709Z,7.75
2023-02-20T15:00:16.456Z,6.53
2023-02-20T15:02:51.213Z,7.40
2023-02-20T15:05:26.236Z,8.40
2023-02-20T15:08:21.201Z,9.13
2023-02-20T15:10:53.661Z,9.20
2023-02-20T15:13:24.548Z,11.20
2023-02-20T15:16:03.956Z,9.52
2023-02-20T15:18:42.411Z,11.60
2023-02-20T15:21:11.678Z,11.23
2023-02-20T15:23:40.475Z,10.43
2023-02-20T15:26:32.212Z,9.88
2023-02-20T15:29:22.807Z,13.10
2023-02-20T15:31:57.759Z,12.25
2023-02-20T15:34:27.161Z,13.90
2023-02-20T15:36:54.436Z,12.68
2023-02-20T15:39:24.350Z,13.10
2023-02-20T15:44:21.024Z,10.68
2023-02-20T15:46:48.383Z,10.85
2023-02-20T15:49:20.515Z,14.02
2023-02-20T15:51:48.626Z,13.23
2023-02-20T15:54:17.626Z,17.88
2023-02-20T15:56:45.330Z,14.23
2023-02-20T15:59:13.340Z,14.00
2023-02-20T16:01:41.099Z,15.00
2023-02-20T16:04:09.117Z,15.02
2023-02-20T16:06:36.860Z,14.70
2023-02-20T16:09:04.877Z,15.75
2023-02-20T16:11:38.220Z,15.32
2023-02-20T16:14:05.904Z,14.60
2023-02-20T16:16:33.488Z,13.93
2023-02-20T16:19:01.289Z,18.92
2023-02-20T16:21:28.824Z,14.52
2023-02-20T16:23:56.781Z,14.27
2023-02-20T16:26:28.855Z,14.32
2023-02-20T16:28:58.935Z,13.73
2023-02-20T16:31:54.135Z,20.52
2023-02-20T16:34:32.425Z,16.67
2023-02-20T16:37:00.533Z,18.02
2023-02-20T16:39:27.811Z,15.25
2023-02-20T16:41:57.801Z,18.70
2023-02-20T16:44:34.314Z,14.85
2023-02-20T16:47:01.691Z,13.95
2023-02-20T16:49:29.144Z,13.70
2023-02-20T16:52:01.453Z,12.52
2023-02-20T16:54:29.394Z,15.15
2023-02-20T16:56:56.822Z,12.88
2023-02-20T16:59:24.716Z,11.95
2023-02-20T17:01:52.188Z,13.52
2023-02-20T17:04:20.178Z,14.18
2023-02-20T17:06:47.858Z,14.55
2023-02-20T17:09:15.339Z,13.25
2023-02-20T17:11:42.744Z,12.18
2023-02-20T17:14:11.625Z,14.57
2023-02-20T17:16:38.913Z,13.73
2023-02-20T17:19:06.234Z,13.32
2023-02-20T17:21:33.460Z,12.68
2023-02-20T17:24:00.749Z,12.27
2023-02-20T17:26:28.753Z,13.88
2023-02-20T17:28:56.175Z,10.43
2023-02-20T17:31:23.745Z,10.77
2023-02-20T17:33:51.044Z,9.98
2023-02-20T17:36:18.314Z,15.67
2023-02-20T17:38:45.622Z,11.85
2023-02-20T17:41:12.930Z,12.77
2023-02-20T17:43:40.519Z,11.13
2023-02-20T17:46:07.758Z,10.40
2023-02-20T17:48:35.070Z,12.93
2023-02-20T17:51:02.415Z,9.55
2023-02-20T17:53:29.757Z,11.85
2023-02-20T17:55:56.988Z,11.18
2023-02-20T17:58:24.246Z,12.45
2023-02-20T18:00:51.512Z,11.30
2023-02-20T18:03:18.898Z,11.05
2023-02-20T18:05:46.165Z,10.57
2023-02-20T18:08:13.517Z,11.33
2023-02-20T18:10:40.731Z,12.40
2023-02-20T18:13:08.066Z,11.38
2023-02-20T18:15:36.434Z,13.55
2023-02-20T18:18:04.067Z,10.35
2023-02-20T18:20:31.652Z,11.50
2023-02-20T18:22:59.439Z,11.27
2023-02-20T18:25:39.462Z,12.55
2023-02-20T18:28:08.443Z,11.18
2023-02-20T18:30:35.309Z,10.97
2023-02-20T18:33:02.893Z,10.97
2023-02-20T18:35:30.153Z,10.05
2023-02-20T18:37:57.429Z,11.63
2023-02-20T18:40:24.802Z,11.82
2023-02-20T18:42:52.453Z,11.20
2023-02-20T18:45:21.774Z,11.20
2023-02-20T18:47:55.052Z,12.18
2023-02-20T18:50:22.435Z,10.52
2023-02-20T18:52:49.786Z,10.88
2023-02-20T18:55:20.620Z,12.13
2023-02-20T18:57:48.477Z,13.90
2023-02-20T19:00:18.182Z,13.35
2023-02-20T19:02:45.666Z,14.77
2023-02-20T19:05:13.772Z,13.32
2023-02-20T19:07:42.321Z,14.13
2023-02-20T19:10:12.052Z,14.00
2023-02-20T19:12:39.484Z,12.15
2023-02-20T19:15:07.394Z,12.75
2023-02-20T19:17:35.040Z,13.05
2023-02-20T19:20:08.773Z,13.23
2023-02-20T19:22:36.499Z,14.60
2023-02-20T19:25:03.912Z,14.55
2023-02-20T19:27:31.411Z,12.17
2023-02-20T19:29:58.766Z,13.20
2023-02-20T19:32:26.089Z,15.57
2023-02-20T19:34:53.541Z,12.95
2023-02-20T19:37:21.712Z,14.87
2023-02-20T19:39:49.057Z,12.93
2023-02-20T19:42:17.288Z,17.73
2023-02-20T19:44:44.642Z,13.23
2023-02-20T19:47:13.497Z,12.85
2023-02-20T19:49:40.763Z,15.35
2023-02-20T19:52:07.658Z,13.13
2023-02-20T19:54:34.978Z,14.50
2023-02-20T19:57:04.841Z,14.75
2023-02-20T19:59:32.268Z,13.73
2023-02-20T20:02:00.709Z,14.48
2023-02-20T20:04:30.737Z,14.52
2023-02-20T20:06:58.621Z,15.88
2023-02-20T20:09:36.178Z,16.10
2023-02-20T20:12:09.282Z,13.65
2023-02-20T20:14:36.445Z,15.70
2023-02-20T20:17:03.867Z,15.35
2023-02-20T20:19:31.176Z,13.70
2023-02-20T20:21:58.002Z,13.48
2023-02-20T20:24:24.829Z,15.20
2023-02-20T20:26:51.660Z,13.17
2023-02-20T20:29:18.518Z,14.13
2023-02-20T20:31:45.631Z,14.48
2023-02-20T20:34:12.923Z,17.07
2023-02-20T20:36:40.309Z,15.18
2023-02-20T20:39:07.853Z,15.95
2023-02-20T20:41:44.399Z,14.95
2023-02-20T20:44:12.462Z,14.20
2023-02-20T20:46:40.265Z,16.05
2023-02-20T20:49:07.804Z,15.23
2023-02-20T20:51:35.383Z,14.93
2023-02-20T20:54:06.386Z,11.93
2023-02-20T20:56:34.476Z,13.15
2023-02-20T20:59:01.931Z,13.45
2023-02-20T21:01:29.374Z,14.50
2023-02-20T21:03:56.735Z,14.43
2023-02-20T21:06:24.159Z,12.18
2023-02-20T21:08:51.542Z,14.40
2023-02-20T21:11:19.037Z,13.32
2023-02-20T21:13:47.435Z,12.80
2023-02-20T21:16:18.767Z,14.02
2023-02-20T21:18:46.743Z,13.40
2023-02-20T21:21:14.361Z,13.07
2023-02-20T21:23:55.923Z,14.07
2023-02-20T21:26:23.374Z,13.80
2023-02-20T21:28:50.755Z,13.57
2023-02-20T21:31:21.129Z,14.38
2023-02-20T21:33:52.186Z,14.10
2023-02-20T21:36:19.902Z,12.65
2023-02-20T21:38:47.311Z,13.05
2023-02-20T21:41:39.095Z,14.70
2023-02-20T21:44:25.132Z,12.85
2023-02-20T21:46:52.710Z,14.15
2023-02-20T21:49:21.456Z,13.67
2023-02-20T21:51:48.855Z,14.30
2023-02-20T21:54:16.870Z,14.02
2023-02-20T21:56:44.165Z,13.10
2023-02-20T21:59:11.382Z,12.05
2023-02-20T22:01:39.526Z,13.70
2023-02-20T22:04:07.956Z,12.48
2023-02-20T22:06:35.281Z,13.32
2023-02-20T22:09:21.578Z,13.10
2023-02-20T22:12:07.641Z,11.48
2023-02-20T22:14:53.563Z,13.85
2023-02-20T22:17:39.544Z,12.45
2023-02-20T22:20:26.115Z,12.48
2023-02-20T22:23:14.871Z,10.88
2023-02-20T22:26:00.726Z,14.95
2023-02-20T22:28:46.172Z,13.25
2023-02-20T22:31:39.390Z,11.80
2023-02-20T22:34:25.559Z,11.52
2023-02-20T22:37:11.361Z,11.45
2023-02-20T22:39:58.835Z,11.80
2023-02-20T22:42:44.140Z,12.53
2023-02-20T22:45:31.518Z,12.70
2023-02-20T22:48:19.164Z,12.75
2023-02-20T22:51:04.998Z,11.05
2023-02-20T22:53:51.046Z,11.45
2023-02-20T22:56:41.083Z,12.00
2023-02-20T22:59:27.475Z,13.82
2023-02-20T23:02:13.430Z,10.45
2023-02-20T23:04:59.570Z,11.88
2023-02-20T23:07:47.594Z,11.15
2023-02-20T23:10:33.245Z,11.88
2023-02-20T23:13:18.654Z,12.07
2023-02-20T23:16:04.528Z,12.90
2023-02-20T23:18:49.909Z,12.02
2023-02-20T23:21:36.248Z,12.73
2023-02-20T23:24:22.237Z,12.65
2023-02-20T23:27:12.254Z,12.05
2023-02-20T23:29:57.693Z,10.95
2023-02-20T23:32:43.557Z,11.20
2023-02-20T23:35:29.929Z,11.00
2023-02-20T23:38:15.824Z,11.68
2023-02-20T23:41:01.104Z,11.60
2023-02-20T23:43:50.021Z,11.23
2023-02-20T23:46:35.957Z,10.40
2023-02-20T23:49:21.187Z,11.63
2023-02-20T23:52:14.988Z,10.88
2023-02-20T23:55:02.361Z,10.98
2023-02-20T23:57:48.287Z,9.55
